Aérodrome :
LOGIN :

S'inscrire | Disclaimer

   EN    FR    IT 

 










Légende :    VFR   VFR Marginal   IFR   IFR Intensif   IFR Très Intensif
Visi : 
Plafond : 
>= 8 km
>= 3000ft
5 à 8 km
1000 à 3000 ft
1500m à 5 km
500 à 1000 ft
800 à 1500m
200 à 500 ft
< 800m
< 200 ft
Symboles :   Orages  Brouillard  Fortes neiges  Fortes précipitations  Vent > 20 kt
SIGMETs :   Divers  Orages  Givrage  Turbulence  Onde Orograph.  Cendres Volcan.







- Altitude de l'aérodrome : 863 ft
- Code IATA : ZAZ


LEZG - Zaragoza Aragon

DERNIER METAR :
  • 180300Z 10007KT 9999 FEW060 BKN070 17/15 Q1015

METARs EXPIRÉS :
  • 180230Z 09007KT 9999 -RA FEW060 BKN070 17/15 Q1015
  • 180200Z 08004KT 9999 FEW060 17/16 Q1016
  • 180130Z 09005KT CAVOK 17/16 Q1016
  • 180100Z 09007KT CAVOK 17/16 Q1016
  • 180030Z 10006KT 9999 FEW070 18/16 Q1016

TAF TAF LEZG
Valide du 18 à 00h jusqu'au 19 à 00h UTC


172300Z 1800/1824 11008KT 9999 SCT030 BKN060 TX23/1814Z TN12/1806Z
TEMPO 1811/1815 25008KT
BECMG 1815/1817 25008KT
PROB40
TEMPO 1806/1819 4000 SHRA BKN030 FEW040CB
PROB30
TEMPO 1812/1819 4000 TSRA BKN030 FEW040CB
Pas de NOTAMs connus pour ce terrain.
2 SIGMETs publiés pour la FIR Madrid (LECM) :
 
Orages noyés dans la masse
LECM SIGMET 3 VALID 180300/180600 LEVA
LECM MADRID FIR/UIR EMBD TS FCST WI N3540 W00710 - N3730 W00720 - N3950 W00520 - N39 W00230 - N3550 W00510 - N3540 W00710 TOP FL340 STNR NC=
Turbulence forte
LECM SIGMET 2 VALID 180100/180500 LEVA
LECM MADRID FIR/UIR SEV TURB OBS AT 0054Z WI N45 W01140 - N4240 W01130 - N42 W010 - N42 W008 - N45 W00740 - N45 W01130 - N45 W01140 FL220/320 MOV NE 20KT NC=



MET'MAP, la Météo Aéronautique d'un coup d'oeil ! - Copyright ORBIFLY Décembre 2007 - Disclaimer

ORBIFLY MET'MAP TEAM :

Programmation & Développement : Alexandra Zaïnal
Conception & Développement : Baudouin d'Aumeries
Co-Programmation & Développement : Marc-Olivier Méhu
Soutien technique & logistique : Manuel Goepfert

Contact : metmap@orbifly.com




SOURCES & CREDITS :

   NOAA